Water Levels and Discharges  |  Reservoirs  |  Precipitation  |  Water quality Last site revision 17.12.2017 07:14
             
Water Levels and Discharges CAUTION: All data are without validation 17.12.2017 07:16:10
Any delay data CHMI stations is caused by the delay of data transfer between CHMI and the PLA, current data are on www.chmi.cz
All facilities Závod Jablonec nad Nisou Závod Pardubice Závod Roudnice nad Labem Selected Stations
Measurement summary  17.12.2017All facilities
Station River Graph Last measured
Qa
Q355
Remark  Indikace řazení
water levelDischarge
[cm] ([h])[m3.s-1] ([h])[m3.s-1][m3.s-1]
 Sobkovice  Tichá Orlice 31 ( 07:00 ) 1.672 ( 07:00 ) 1.610 0.270
 Litice  Divoká Orlice 52 ( 07:00 ) 9.128 ( 07:00 ) 5.290 1.080
 Souš  Černá Desná 24 ( 07:00 ) 0.191 ( 07:00 ) 0.315 0.014
 Les Království  Labe 56 ( 06:45 ) 8.335 ( 06:45 ) 8.890 2.200
 Litoměřice  Labe 275 ( 07:00 ) 296.0 98.60
 Malešov  Vrchlice 22 ( 07:00 ) 0.160 ( 07:00 ) 0.328 0.002
 Slaná  Oleška 58 ( 07:00 ) 2.545 ( 07:00 ) 1.510 0.177
 Litomyšl  Loučná 19 ( 07:00 ) 0.194 ( 07:00 ) 0.559 0.032
 Slatina nad Úpou  Úpa 42 ( 07:00 ) 5.114 ( 07:00 ) 6.700 1.700
 Lány  Chrudimka 24 ( 07:00 ) 0.167 ( 07:00 ) 0.320 0.031
 Klášterec nad Orlicí  Divoká Orlice 27 ( 07:00 ) 3.638 ( 07:00 ) 3.480 0.560
 Žákovec  Dědina 44 ( 07:00 ) 1.239 ( 07:00 ) 0.570 0.071
 Svídnice  Chrudimka 40 ( 07:00 ) 3.410 ( 07:00 ) 2.740 0.519
 Josefův Důl  Kamenice 16 ( 07:00 ) 0.416 ( 07:00 ) 0.405 0.054
 Střekov  Labe 141.41 * ( 07:00 ) 244.0 ( 07:00 ) 296.0 97.90
 Kristiánov  Kamenice 10 ( 07:00 ) 0.151 ( 07:00 ) 0.262 0.059
 Labská  Labe 20 ( 07:00 ) 1.431 ( 07:00 ) 2.690 0.525
 Spačice  Doubrava 73 ( 06:45 ) 1.159 ( 06:45 ) 1.740 0.175
 Přemilov  Chrudimka 73 ( 07:00 ) 1.502 ( 07:00 ) 2.190 0.263
 Padrty  Chrudimka 88 ( 07:00 ) 3.036 ( 07:00 ) 2.360 0.538
 Opatovice nad Labem  Labe 225.06 * ( 07:00 ) 46.50 12.80
 Rohoznice  Bystřice 50 ( 07:00 ) 0.653 ( 07:00 ) 0.344 0.033
 Pařížov  Doubrava 23 ( 06:45 ) 1.072 ( 06:45 ) 1.760 0.191
 Proseč nad Nisou  Lužická Nisa 37 ( 07:00 ) 1.651 ( 07:00 ) 1.100 0.267
 Prosečné  Malé Labe 59 ( 07:00 ) 1.546 ( 07:00 ) 1.700 0.381
 Peklo  Olešenka 56 ( 07:00 ) 1.133 ( 07:00 ) 0.505 0.091
 Plavy  Kamenice 47 ( 07:00 ) 3.221 ( 07:00 ) 3.680 0.830
 Zaječice  Ležák 16 ( 07:00 ) 0.169 ( 07:00 ) 0.527 0.030
 Mlýnice  Albrechtický potok 17 ( 07:00 ) 0.139 ( 07:00 ) 0.098 0.012
 Mníšek  Jeřice 17 ( 07:00 ) 0.410 ( 07:00 ) 0.500 0.130
 Zlíč  Úpa 54 ( 06:45 ) 6.892 ( 06:45 ) 6.310 1.630
 Mezisvětí  Chrudimka 53 ( 07:00 ) 2.452 ( 07:00 ) 2.620 0.607
 Mšeno  Mšenský potok 12 ( 07:00 ) 0.074 ( 07:00 ) 0.092 0.018
 Rudolfov  Černá Nisa 6 ( 07:00 ) 0.116 ( 07:00 ) 0.274 0.058
 Rozkoš  Rozkošský potok 19 ( 07:00 ) 0.390 ( 07:00 ) 0.427 0.074
 Nekoř  Divoká Orlice 37 ( 07:00 ) 6.340 ( 07:00 ) 3.710 0.837
 Rychnov nad Kněžnou  Kněžná 33 ( 07:00 ) 0.919 ( 07:00 ) 0.903 0.062
 Frýdlant  Řasnice 19 ( 07:00 ) 0.329 ( 07:00 ) 0.357 0.063
 Fojtka  Fojtka 20 ( 07:00 ) 0.169 ( 07:00 ) 0.135 0.024
 Dolní Štěpanice  Jizerka 82 ( 07:00 ) 1.028 ( 07:00 ) 1.290 0.251
 Uhlířská  Černá Nisa 38 ( 07:00 ) 0.033 ( 07:00 ) 0.057 0.009
 Horní Lánov  Malé Labe 9 ( 07:00 ) 0.437 ( 07:00 ) 1.270 0.319
 Hamry  Chrudimka 13 ( 07:00 ) 0.483 ( 07:00 ) 0.587 0.063
 Vrchlice  Vrchlice 20 ( 07:00 ) 0.101 ( 07:00 ) 0.319 0.030
 Častolovice  Bělá 39 ( 07:00 ) 3.291 ( 07:00 ) 2.610 0.317
 Chotěvice  Pilníkovský potok 47 ( 07:00 ) 1.359 ( 07:00 ) 0.923 0.227
 Chocnějovice  Mohelka 60 ( 07:00 ) 2.418 ( 07:00 ) 1.660 0.345
 Velký Dřevíč  Dřevíč 38 ( 07:00 ) 0.762 ( 07:00 ) 0.666 0.131
 Dolní Sytová  Jizera 62 ( 07:00 ) 7.967 ( 07:00 ) 8.860 2.130
 Dolní Olešnice  Kalenský potok 30 ( 07:00 ) 0.862 ( 07:00 ) 0.633 0.136
 Brod  Labe 176 ( 07:00 ) 9.776 ( 07:00 ) 10.00 2.340
 Svídnice  Štítarský potok 40 ( 07:00 ) 0.111 ( 07:00 ) 0.492 0.029
 Třebovice  Třebovka 21 ( 07:00 ) 0.173 ( 07:00 ) 0.445 0.080
 Hradec Králové  Orlice 227.88 * ( 05:45 ) 28.69 ( 05:45 ) 21.58 3.950
 Janov-Harrachov  Mumlava 87 ( 07:00 ) 1.285 ( 07:00 ) 2.050 0.415
 Jaroměř  Metuje 43 ( 07:00 ) 6.218 ( 07:00 ) 7.050 1.930
 Žamberk  Rokytenka 38 ( 07:00 ) 1.049 ( 07:00 ) 0.893 0.098
 Jezdecká  Černá Desná 32 ( 07:00 ) 0.120 ( 07:00 ) 0.191 0.033
 Špindlerův Mlýn  Labe 96 ( 07:00 ) 1.008 ( 07:00 ) 2.430 0.416
 Jedlová v Orlických horách  Bělá 31 ( 07:00 ) 0.653 ( 07:00 ) 0.621 0.102
 Hostinné  Labe 28 ( 07:00 ) 4.648 ( 07:00 ) 6.080 1.340
 Hostinné  Čistá 47 ( 07:00 ) 1.225 ( 07:00 ) 1.300 0.242
 Otradov  Krounka -5 ( 07:00 ) 0.059 ( 07:00 ) 0.467 0.008 Hladina může být pod úrovní nuly vodočtu.
 Český Brod  Šembera 4 ( 07:00 ) 0.149 0.014 Hladina může být pod úrovní nuly vodočtu.
 Lichkov  Tichá Orlice 8 ( 07:00 ) 0.811 ( 07:00 ) 1.090 0.216 Hladina může být pod úrovní nuly vodočtu.
 Turnov  Jizera 18 ( 07:00 ) 18.50 5.000 Hladina může být pod úrovní nuly vodočtu.
 Chlumec nad Cidlinou  Cidlina 63 ( 07:00 ) 3.816 ( 07:00 ) 5.090 0.318 Hodnota průtoku pro vodní stav pod 40 cm je pouze orientační.
 Harcov  Harcovský potok 0.193 0.031 Porucha stanice.
 Brandýs nad Labem  Labe 137 ( 07:00 ) 102.9 26.20 Průtok nezávisí na vodním stavu, vodní stav je ovlivněn vzdutím. Hodnoty průtoku jsou určeny součtem průtoků vodní elektrárny a jezu.
 Vestřev  Labe 35 ( 07:00 ) 6.220 ( 07:00 ) 6.860 1.420 Stanice ČHMÚ
 Žleby  Doubrava 40 ( 06:50 ) 1.800 ( 06:50 ) 2.760 0.280 Stanice ČHMÚ
 Přelouč  Labe 101 ( 07:00 ) 61.06 ( 07:00 ) 59.20 17.00 Stanice ČHMÚ
 Vraňany  Vltava 45 ( 07:00 ) 86.80 ( 07:00 ) 152.0 28.00 Stanice ČHMÚ
 Předměřice  Jizera 174 ( 07:10 ) 26.52 ( 07:10 ) 24.30 5.610 Stanice ČHMÚ
 Skuhrov  Bělá 30 ( 06:50 ) 1.410 ( 06:50 ) 0.980 0.181 Stanice ČHMÚ
 Sány  Cidlina 65 ( 07:00 ) 5.630 ( 07:00 ) 5.200 0.118 Stanice ČHMÚ
 Týniště nad Orlicí  Orlice 139 ( 07:00 ) 22.24 ( 07:00 ) 18.60 3.730 Stanice ČHMÚ
 Slatina nad Zdobnicí  Zdobnice 78 ( 07:00 ) 2.536 ( 07:00 ) 1.950 0.303 Stanice ČHMÚ
 Ústí nad Orlicí  Třebovka 32 ( 06:50 ) 0.356 ( 06:50 ) 1.090 0.215 Stanice ČHMÚ
 Vestec  Mrlina 18 ( 06:50 ) 0.926 ( 06:50 ) 1.410 0.085 Stanice ČHMÚ
 Úhřetice  Novohradka 58 ( 06:50 ) 1.150 ( 06:50 ) 2.520 0.185 Stanice ČHMÚ
 Ústí nad Labem  Labe 227 ( 07:00 ) 244.0 ( 07:00 ) 296.0 97.90 Stanice ČHMÚ
 Železný Brod  Jizera 137 ( 07:00 ) 17.28 ( 07:00 ) 17.20 4.010 Stanice ČHMÚ
 Horní Maršov  Úpa 31 ( 06:50 ) 1.374 ( 06:50 ) 2.580 0.578 Stanice ČHMÚ
 Frýdlant  Smědá 20 ( 06:50 ) 2.170 ( 06:50 ) 3.180 0.781 Stanice ČHMÚ
 Hrádek nad Nisou  Lužická Nisa 32 ( 07:00 ) 6.523 ( 07:00 ) 5.460 1.630 Stanice ČHMÚ
 Jičín  Cidlina 18 ( 07:00 ) 0.356 ( 07:00 ) 0.329 0.020 Stanice ČHMÚ
 Jaroměř  Labe 232 ( 06:50 ) 14.64 ( 06:50 ) 17.20 4.530 Stanice ČHMÚ
 Jablonec nad Jizerou  Jizera 23 ( 07:00 ) 4.212 ( 07:00 ) 5.620 1.250 Stanice ČHMÚ
 Dolní Libchavy  Tichá Orlice 42 ( 06:50 ) 4.586 ( 06:50 ) 4.330 0.932 Stanice ČHMÚ
 Cerekvice nad Loučnou  Loučná 35 ( 06:50 ) 0.664 ( 06:50 ) 1.790 0.380 Stanice ČHMÚ
 Bílý Potok  Smědá 13 ( 07:00 ) 0.682 ( 07:00 ) 0.939 0.180 Stanice ČHMÚ
 Bílek  Doubrava 38 ( 07:00 ) 0.358 ( 07:00 ) 0.684 0.041 Stanice ČHMÚ
 Chábory  Dědina 36 ( 06:50 ) 1.049 ( 06:50 ) 0.956 0.070 Stanice ČHMÚ
 Děčín  Labe 205 ( 07:00 ) 266.0 ( 07:00 ) 315.0 108.0 Stanice ČHMÚ
 Dašice  Loučná 89 ( 07:00 ) 2.072 ( 07:00 ) 3.600 1.290 Stanice ČHMÚ
 Čermná nad Orlicí  Tichá Orlice 72 ( 06:50 ) 8.012 ( 06:50 ) 7.340 1.920 Stanice ČHMÚ
 Kostelec nad Orlicí  Divoká Orlice 51 ( 07:00 ) 13.04 ( 07:00 ) 8.040 1.560 Stanice ČHMÚ
 Nový Bydžov  Cidlina 65 ( 07:00 ) 3.370 ( 07:00 ) 2.740 0.239 Stanice ČHMÚ
 Nemošice  Chrudimka 58 ( 07:00 ) 5.116 ( 07:00 ) 5.840 0.896 Stanice ČHMÚ
 Němčice  Labe 145 ( 07:00 ) 50.00 ( 07:00 ) 47.10 13.00 Stanice ČHMÚ
 Orlické Záhoří  Divoká Orlice 14 ( 06:50 ) 0.951 ( 06:50 ) 1.130 0.165 Stanice ČHMÚ
 Předlánce  Smědá 33 ( 06:50 ) 3.850 ( 06:50 ) 4.270 1.062 Stanice ČHMÚ
 Plaňany  Výrovka 14 ( 07:00 ) 0.328 ( 07:00 ) 0.764 0.105 Stanice ČHMÚ
 Otovice  Stěnava 54 ( 06:50 ) 1.516 ( 06:50 ) 1.990 0.441 Stanice ČHMÚ
 Mitrov  Dědina 59 ( 07:00 ) 3.638 ( 07:00 ) 2.110 0.129 Stanice ČHMÚ
 Liberec  Lužická Nisa 50 ( 06:50 ) 2.290 ( 06:50 ) 2.050 0.559 Stanice ČHMÚ
 Lázně Bělohrad  Javorka 31 ( 07:00 ) 0.548 ( 07:00 ) 0.380 0.099 Stanice ČHMÚ
 Krčín  Metuje 51 ( 06:50 ) 6.404 ( 06:50 ) 5.330 1.440 Stanice ČHMÚ
 Louny  Ohře 259 ( 06:50 ) 57.22 ( 06:50 ) 37.30 7.680 Stanice ČHMÚ
 Meziměstí  Stěnava 21 ( 07:00 ) 0.405 ( 07:00 ) 0.766 0.164 Stanice ČHMÚ
 Maršov nad Metují  Metuje 35 ( 06:50 ) 0.700 ( 06:50 ) 1.030 0.315 Stanice ČHMÚ
 Luže  Novohradka 30 ( 06:50 ) 0.450 ( 06:50 ) 1.220 0.120 Stanice ČHMÚ
 Bakov nad Jizerou  Jizera 205 ( 07:00 ) 24.30 ( 07:00 ) 23.30 6.340 Stanice ČHMÚ
 Hronov  Metuje 24 ( 07:00 ) 2.660 ( 07:00 ) 2.770 0.806 Stanice ČHMÚ - hladina může být pod úrovní nuly vodočtu.
 Mělník  Labe 267 ( 07:10 ) 180.0 ( 07:00 )
16.12.2017
256.0 82.20 Stanice ČHMÚ - průtok nezávisí na vodním stavu, vodní stav je ovlivněn vzdutím. Hodnoty průtoku jsou určeny součtem průtoků v Labi a Vltavě.
 Kostelec nad Labem  Labe 413 ( 07:00 ) 98.77 ( 07:00 ) 104.0 26.00 Stanice ČHMÚ - průtok nezávisí na vodním stavu, vodní stav je ovlivněn vzdutím. Hodnoty průtoku jsou určeny součtem průtoků vodní elektrárny a jezu. Průtoky odvozené měrnou křivkou jsou k dispozici od vodního stavu 601 cm.
 Nymburk  Labe 196 ( 07:00 ) 67.27 ( 06:30 ) 73.70 19.30 Stanice ČHMÚ - průtok nezávisí na vodním stavu, vodní stav je ovlivněn vzdutím. Hodnoty průtoku jsou určeny součtem průtoků vodní elektrárny, jezu a limnigrafu Vestec.
 Horní Staré Město  Úpa 30 ( 06:50 ) 6.370 ( 06:50 ) 4.010 1.130 Stanice ČHMÚ. Od 17.7. 2017 stavební práce ve vodním toku, možnost ovlivnění měření.
* [m asl]
Qaaverage discharge
Q355average daily discharge reached or exceeded 355 days a year
  Povodí Labe, státní podnik © 2017 The system uses also data from measuring stations of   Czech Hydrometeorological Institute © 2017 Application developed by   MGE Data s.r.o. © 1996 - 2014